sensor_id;sensor_type;location;lat;lon;timestamp;P1;durP1;ratioP1;P2;durP2;ratioP2
59569;SDS011;45393;44.646;10.900;2022-09-09T00:06:28;14.80;;;8.53;;
59569;SDS011;45393;44.646;10.900;2022-09-09T00:11:50;12.47;;;9.13;;
59569;SDS011;45393;44.646;10.900;2022-09-09T00:14:23;13.23;;;9.13;;
59569;SDS011;45393;44.646;10.900;2022-09-09T00:16:54;12.07;;;8.20;;
59569;SDS011;45393;44.646;10.900;2022-09-09T00:19:26;12.30;;;8.90;;
59569;SDS011;45393;44.646;10.900;2022-09-09T00:22:16;12.33;;;8.83;;
59569;SDS011;45393;44.646;10.900;2022-09-09T00:24:42;15.67;;;9.73;;
59569;SDS011;45393;44.646;10.900;2022-09-09T00:27:32;13.77;;;9.20;;
59569;SDS011;45393;44.646;10.900;2022-09-09T00:30:00;13.50;;;8.80;;
59569;SDS011;45393;44.646;10.900;2022-09-09T00:32:27;14.17;;;9.57;;
59569;SDS011;45393;44.646;10.900;2022-09-09T00:35:12;11.13;;;8.83;;
59569;SDS011;45393;44.646;10.900;2022-09-09T00:37:41;10.30;;;8.77;;
59569;SDS011;45393;44.646;10.900;2022-09-09T00:40:16;12.93;;;8.73;;
59569;SDS011;45393;44.646;10.900;2022-09-09T00:42:44;12.33;;;8.13;;
59569;SDS011;45393;44.646;10.900;2022-09-09T00:47:56;13.50;;;9.70;;
59569;SDS011;45393;44.646;10.900;2022-09-09T00:55:49;11.10;;;8.53;;
59569;SDS011;45393;44.646;10.900;2022-09-09T00:58:18;16.43;;;9.17;;
59569;SDS011;45393;44.646;10.900;2022-09-09T01:00:45;14.87;;;8.83;;
59569;SDS011;45393;44.646;10.900;2022-09-09T01:11:20;10.93;;;8.30;;
59569;SDS011;45393;44.646;10.900;2022-09-09T01:13:46;13.73;;;9.00;;
59569;SDS011;45393;44.646;10.900;2022-09-09T01:16:15;10.70;;;8.10;;
59569;SDS011;45393;44.646;10.900;2022-09-09T01:18:46;16.00;;;9.53;;
59569;SDS011;45393;44.646;10.900;2022-09-09T01:21:22;10.30;;;8.97;;
59569;SDS011;45393;44.646;10.900;2022-09-09T01:26:36;12.10;;;8.27;;
59569;SDS011;45393;44.646;10.900;2022-09-09T01:29:06;13.80;;;9.27;;
59569;SDS011;45393;44.646;10.900;2022-09-09T01:31:35;14.13;;;8.27;;
59569;SDS011;45393;44.646;10.900;2022-09-09T01:34:02;10.47;;;8.30;;
59569;SDS011;45393;44.646;10.900;2022-09-09T01:38:58;12.47;;;8.17;;
59569;SDS011;45393;44.646;10.900;2022-09-09T01:41:24;12.50;;;8.30;;
59569;SDS011;45393;44.646;10.900;2022-09-09T01:43:52;12.03;;;7.83;;
59569;SDS011;45393;44.646;10.900;2022-09-09T01:46:18;10.47;;;7.20;;
59569;SDS011;45393;44.646;10.900;2022-09-09T01:48:47;10.00;;;7.70;;
59569;SDS011;45393;44.646;10.900;2022-09-09T01:51:14;11.90;;;8.00;;
59569;SDS011;45393;44.646;10.900;2022-09-09T01:53:40;10.07;;;7.70;;
59569;SDS011;45393;44.646;10.900;2022-09-09T02:03:47;12.30;;;9.07;;
59569;SDS011;45393;44.646;10.900;2022-09-09T02:06:25;11.00;;;8.63;;
59569;SDS011;45393;44.646;10.900;2022-09-09T02:08:52;15.57;;;9.67;;
59569;SDS011;45393;44.646;10.900;2022-09-09T02:11:22;12.17;;;9.10;;
59569;SDS011;45393;44.646;10.900;2022-09-09T02:13:49;14.27;;;9.97;;
59569;SDS011;45393;44.646;10.900;2022-09-09T02:18:56;18.53;;;12.23;;
59569;SDS011;45393;44.646;10.900;2022-09-09T02:21:24;16.13;;;11.73;;
59569;SDS011;45393;44.646;10.900;2022-09-09T02:23:51;16.27;;;11.73;;
59569;SDS011;45393;44.646;10.900;2022-09-09T02:26:18;13.60;;;11.17;;
59569;SDS011;45393;44.646;10.900;2022-09-09T02:28:50;14.90;;;12.13;;
59569;SDS011;45393;44.646;10.900;2022-09-09T02:31:17;18.27;;;12.77;;
59569;SDS011;45393;44.646;10.900;2022-09-09T02:33:45;17.43;;;12.40;;
59569;SDS011;45393;44.646;10.900;2022-09-09T02:36:14;17.23;;;11.73;;
59569;SDS011;45393;44.646;10.900;2022-09-09T02:38:50;19.10;;;12.23;;
59569;SDS011;45393;44.646;10.900;2022-09-09T02:41:30;14.60;;;11.40;;
59569;SDS011;45393;44.646;10.900;2022-09-09T02:43:57;13.93;;;10.53;;
59569;SDS011;45393;44.646;10.900;2022-09-09T02:49:00;15.37;;;11.07;;
59569;SDS011;45393;44.646;10.900;2022-09-09T02:54:28;14.57;;;11.70;;
59569;SDS011;45393;44.646;10.900;2022-09-09T02:56:55;13.37;;;10.77;;
59569;SDS011;45393;44.646;10.900;2022-09-09T02:59:22;19.20;;;13.33;;
59569;SDS011;45393;44.646;10.900;2022-09-09T03:01:50;19.27;;;15.10;;
59569;SDS011;45393;44.646;10.900;2022-09-09T03:04:18;23.37;;;14.83;;
59569;SDS011;45393;44.646;10.900;2022-09-09T03:06:44;18.00;;;14.33;;
59569;SDS011;45393;44.646;10.900;2022-09-09T03:09:11;18.80;;;14.00;;
59569;SDS011;45393;44.646;10.900;2022-09-09T03:11:37;21.03;;;15.57;;
59569;SDS011;45393;44.646;10.900;2022-09-09T03:14:04;19.70;;;14.07;;
59569;SDS011;45393;44.646;10.900;2022-09-09T03:16:30;17.30;;;14.93;;
59569;SDS011;45393;44.646;10.900;2022-09-09T03:18:58;16.87;;;13.00;;
59569;SDS011;45393;44.646;10.900;2022-09-09T03:21:24;18.90;;;12.53;;
59569;SDS011;45393;44.646;10.900;2022-09-09T03:23:50;16.53;;;13.73;;
59569;SDS011;45393;44.646;10.900;2022-09-09T03:26:16;20.63;;;15.07;;
59569;SDS011;45393;44.646;10.900;2022-09-09T03:28:42;20.83;;;16.07;;
59569;SDS011;45393;44.646;10.900;2022-09-09T03:31:10;20.63;;;15.60;;
59569;SDS011;45393;44.646;10.900;2022-09-09T03:33:36;23.17;;;16.33;;
59569;SDS011;45393;44.646;10.900;2022-09-09T03:36:03;18.00;;;13.97;;
59569;SDS011;45393;44.646;10.900;2022-09-09T03:38:29;19.73;;;16.77;;
59569;SDS011;45393;44.646;10.900;2022-09-09T03:40:56;25.67;;;18.53;;
59569;SDS011;45393;44.646;10.900;2022-09-09T03:43:23;24.13;;;20.00;;
59569;SDS011;45393;44.646;10.900;2022-09-09T03:45:50;28.47;;;20.23;;
59569;SDS011;45393;44.646;10.900;2022-09-09T03:48:16;27.67;;;21.80;;
59569;SDS011;45393;44.646;10.900;2022-09-09T03:50:49;28.00;;;23.00;;
59569;SDS011;45393;44.646;10.900;2022-09-09T03:53:16;29.63;;;21.17;;
59569;SDS011;45393;44.646;10.900;2022-09-09T03:55:47;30.50;;;23.73;;
59569;SDS011;45393;44.646;10.900;2022-09-09T03:58:14;22.73;;;18.17;;
59569;SDS011;45393;44.646;10.900;2022-09-09T04:00:40;27.50;;;18.97;;
59569;SDS011;45393;44.646;10.900;2022-09-09T04:03:10;21.90;;;16.13;;
59569;SDS011;45393;44.646;10.900;2022-09-09T04:05:36;17.23;;;13.70;;
59569;SDS011;45393;44.646;10.900;2022-09-09T04:08:05;27.80;;;14.80;;
59569;SDS011;45393;44.646;10.900;2022-09-09T04:10:31;18.80;;;13.13;;
59569;SDS011;45393;44.646;10.900;2022-09-09T04:12:58;21.10;;;12.97;;
59569;SDS011;45393;44.646;10.900;2022-09-09T04:15:24;13.23;;;11.60;;
59569;SDS011;45393;44.646;10.900;2022-09-09T04:17:50;16.83;;;8.90;;
59569;SDS011;45393;44.646;10.900;2022-09-09T04:20:17;31.20;;;11.43;;
59569;SDS011;45393;44.646;10.900;2022-09-09T04:22:44;17.93;;;8.27;;
59569;SDS011;45393;44.646;10.900;2022-09-09T04:25:10;9.57;;;5.73;;
59569;SDS011;45393;44.646;10.900;2022-09-09T04:27:36;10.60;;;6.10;;
59569;SDS011;45393;44.646;10.900;2022-09-09T04:30:02;7.90;;;5.53;;
59569;SDS011;45393;44.646;10.900;2022-09-09T04:32:28;7.17;;;5.10;;
59569;SDS011;45393;44.646;10.900;2022-09-09T04:34:54;9.77;;;6.40;;
59569;SDS011;45393;44.646;10.900;2022-09-09T04:37:20;8.40;;;5.77;;
59569;SDS011;45393;44.646;10.900;2022-09-09T04:39:47;9.57;;;5.57;;
59569;SDS011;45393;44.646;10.900;2022-09-09T04:42:13;9.97;;;5.03;;
59569;SDS011;45393;44.646;10.900;2022-09-09T04:44:39;8.37;;;4.80;;
59569;SDS011;45393;44.646;10.900;2022-09-09T04:47:05;8.37;;;4.53;;
59569;SDS011;45393;44.646;10.900;2022-09-09T04:49:31;8.87;;;4.90;;
59569;SDS011;45393;44.646;10.900;2022-09-09T04:51:57;10.03;;;4.63;;
59569;SDS011;45393;44.646;10.900;2022-09-09T04:54:23;6.80;;;4.63;;
59569;SDS011;45393;44.646;10.900;2022-09-09T04:56:50;8.50;;;5.03;;
59569;SDS011;45393;44.646;10.900;2022-09-09T04:59:16;6.67;;;5.20;;
59569;SDS011;45393;44.646;10.900;2022-09-09T05:01:42;12.93;;;5.30;;
59569;SDS011;45393;44.646;10.900;2022-09-09T05:04:08;7.77;;;5.40;;
59569;SDS011;45393;44.646;10.900;2022-09-09T05:06:35;8.27;;;4.83;;
59569;SDS011;45393;44.646;10.900;2022-09-09T05:09:01;10.33;;;5.20;;
59569;SDS011;45393;44.646;10.900;2022-09-09T05:11:28;13.80;;;5.90;;
59569;SDS011;45393;44.646;10.900;2022-09-09T05:13:55;7.23;;;5.17;;
59569;SDS011;45393;44.646;10.900;2022-09-09T05:16:24;10.20;;;4.70;;
59569;SDS011;45393;44.646;10.900;2022-09-09T05:18:51;7.37;;;4.30;;
59569;SDS011;45393;44.646;10.900;2022-09-09T05:21:18;8.43;;;4.60;;
59569;SDS011;45393;44.646;10.900;2022-09-09T05:23:44;8.30;;;4.23;;
59569;SDS011;45393;44.646;10.900;2022-09-09T05:26:12;7.83;;;3.87;;
59569;SDS011;45393;44.646;10.900;2022-09-09T05:28:38;8.90;;;3.37;;
59569;SDS011;45393;44.646;10.900;2022-09-09T05:31:05;8.67;;;3.83;;
59569;SDS011;45393;44.646;10.900;2022-09-09T05:33:37;6.70;;;3.60;;
59569;SDS011;45393;44.646;10.900;2022-09-09T05:36:15;6.43;;;3.43;;
59569;SDS011;45393;44.646;10.900;2022-09-09T05:38:41;7.80;;;3.40;;
59569;SDS011;45393;44.646;10.900;2022-09-09T05:41:08;8.20;;;3.47;;
59569;SDS011;45393;44.646;10.900;2022-09-09T05:43:36;6.33;;;3.20;;
59569;SDS011;45393;44.646;10.900;2022-09-09T05:46:06;9.80;;;3.50;;
59569;SDS011;45393;44.646;10.900;2022-09-09T05:48:37;6.37;;;3.40;;
59569;SDS011;45393;44.646;10.900;2022-09-09T05:51:03;7.17;;;3.17;;
59569;SDS011;45393;44.646;10.900;2022-09-09T05:53:31;6.37;;;2.80;;
59569;SDS011;45393;44.646;10.900;2022-09-09T05:56:09;9.13;;;3.60;;
59569;SDS011;45393;44.646;10.900;2022-09-09T05:58:42;8.83;;;4.17;;
59569;SDS011;45393;44.646;10.900;2022-09-09T06:03:50;6.00;;;4.33;;
59569;SDS011;45393;44.646;10.900;2022-09-09T06:06:21;6.90;;;4.00;;
59569;SDS011;45393;44.646;10.900;2022-09-09T06:08:47;9.63;;;5.40;;
59569;SDS011;45393;44.646;10.900;2022-09-09T06:11:18;13.20;;;4.53;;
59569;SDS011;45393;44.646;10.900;2022-09-09T06:13:44;9.13;;;4.40;;
59569;SDS011;45393;44.646;10.900;2022-09-09T06:16:15;8.50;;;4.33;;
59569;SDS011;45393;44.646;10.900;2022-09-09T06:18:41;5.63;;;3.73;;
59569;SDS011;45393;44.646;10.900;2022-09-09T06:21:13;9.83;;;3.80;;
59569;SDS011;45393;44.646;10.900;2022-09-09T06:23:40;9.50;;;4.30;;
59569;SDS011;45393;44.646;10.900;2022-09-09T06:26:09;7.60;;;3.10;;
59569;SDS011;45393;44.646;10.900;2022-09-09T06:28:35;6.73;;;3.40;;
59569;SDS011;45393;44.646;10.900;2022-09-09T06:31:05;8.50;;;3.53;;
59569;SDS011;45393;44.646;10.900;2022-09-09T06:33:34;9.63;;;3.60;;
59569;SDS011;45393;44.646;10.900;2022-09-09T06:36:01;12.47;;;3.97;;
59569;SDS011;45393;44.646;10.900;2022-09-09T06:38:28;7.07;;;3.40;;
59569;SDS011;45393;44.646;10.900;2022-09-09T06:40:55;8.67;;;2.57;;
59569;SDS011;45393;44.646;10.900;2022-09-09T06:43:23;6.60;;;2.93;;
59569;SDS011;45393;44.646;10.900;2022-09-09T06:45:53;6.13;;;2.60;;
59569;SDS011;45393;44.646;10.900;2022-09-09T06:48:19;5.63;;;2.83;;
59569;SDS011;45393;44.646;10.900;2022-09-09T06:50:46;8.17;;;3.47;;
59569;SDS011;45393;44.646;10.900;2022-09-09T06:53:12;5.63;;;2.80;;
59569;SDS011;45393;44.646;10.900;2022-09-09T06:55:38;4.60;;;2.67;;
59569;SDS011;45393;44.646;10.900;2022-09-09T06:58:10;8.67;;;3.40;;
59569;SDS011;45393;44.646;10.900;2022-09-09T07:00:36;10.07;;;3.73;;
59569;SDS011;45393;44.646;10.900;2022-09-09T07:03:05;7.53;;;4.07;;
59569;SDS011;45393;44.646;10.900;2022-09-09T07:05:31;10.30;;;3.60;;
59569;SDS011;45393;44.646;10.900;2022-09-09T07:07:57;11.03;;;4.47;;
59569;SDS011;45393;44.646;10.900;2022-09-09T07:10:23;9.87;;;3.43;;
59569;SDS011;45393;44.646;10.900;2022-09-09T07:12:50;10.63;;;4.40;;
59569;SDS011;45393;44.646;10.900;2022-09-09T07:15:17;8.17;;;4.37;;
59569;SDS011;45393;44.646;10.900;2022-09-09T07:17:43;9.33;;;4.10;;
59569;SDS011;45393;44.646;10.900;2022-09-09T07:20:10;7.00;;;3.87;;
59569;SDS011;45393;44.646;10.900;2022-09-09T07:22:37;8.20;;;3.73;;
59569;SDS011;45393;44.646;10.900;2022-09-09T07:25:03;7.40;;;4.73;;
59569;SDS011;45393;44.646;10.900;2022-09-09T07:27:29;14.27;;;5.07;;
59569;SDS011;45393;44.646;10.900;2022-09-09T07:29:55;8.33;;;4.67;;
59569;SDS011;45393;44.646;10.900;2022-09-09T07:32:23;12.67;;;6.73;;
59569;SDS011;45393;44.646;10.900;2022-09-09T07:34:50;18.60;;;10.30;;
59569;SDS011;45393;44.646;10.900;2022-09-09T07:37:16;28.40;;;16.00;;
59569;SDS011;45393;44.646;10.900;2022-09-09T07:39:43;32.67;;;17.03;;
59569;SDS011;45393;44.646;10.900;2022-09-09T07:42:09;25.97;;;16.00;;
59569;SDS011;45393;44.646;10.900;2022-09-09T07:44:36;32.43;;;16.87;;
59569;SDS011;45393;44.646;10.900;2022-09-09T07:47:04;27.10;;;16.50;;
59569;SDS011;45393;44.646;10.900;2022-09-09T07:49:31;26.27;;;17.23;;
59569;SDS011;45393;44.646;10.900;2022-09-09T07:51:57;29.13;;;20.07;;
59569;SDS011;45393;44.646;10.900;2022-09-09T07:54:23;26.03;;;18.83;;
59569;SDS011;45393;44.646;10.900;2022-09-09T07:56:51;24.30;;;17.80;;
59569;SDS011;45393;44.646;10.900;2022-09-09T07:59:18;28.50;;;21.03;;
59569;SDS011;45393;44.646;10.900;2022-09-09T08:01:48;28.63;;;21.20;;
59569;SDS011;45393;44.646;10.900;2022-09-09T08:04:18;28.37;;;21.83;;
59569;SDS011;45393;44.646;10.900;2022-09-09T08:06:45;27.70;;;20.07;;
59569;SDS011;45393;44.646;10.900;2022-09-09T08:09:12;28.70;;;20.90;;
59569;SDS011;45393;44.646;10.900;2022-09-09T08:11:39;27.33;;;21.47;;
59569;SDS011;45393;44.646;10.900;2022-09-09T08:14:06;29.50;;;20.70;;
59569;SDS011;45393;44.646;10.900;2022-09-09T08:16:33;22.83;;;17.73;;
59569;SDS011;45393;44.646;10.900;2022-09-09T08:19:01;26.90;;;19.93;;
59569;SDS011;45393;44.646;10.900;2022-09-09T08:21:28;22.57;;;16.67;;
59569;SDS011;45393;44.646;10.900;2022-09-09T08:23:55;21.20;;;16.60;;
59569;SDS011;45393;44.646;10.900;2022-09-09T08:26:29;26.80;;;19.23;;
59569;SDS011;45393;44.646;10.900;2022-09-09T08:28:56;27.67;;;19.77;;
59569;SDS011;45393;44.646;10.900;2022-09-09T08:31:23;26.93;;;18.90;;
59569;SDS011;45393;44.646;10.900;2022-09-09T08:33:49;22.53;;;17.93;;
59569;SDS011;45393;44.646;10.900;2022-09-09T08:36:23;25.83;;;17.77;;
59569;SDS011;45393;44.646;10.900;2022-09-09T08:38:51;24.50;;;16.27;;
59569;SDS011;45393;44.646;10.900;2022-09-09T08:44:25;21.30;;;15.93;;
59569;SDS011;45393;44.646;10.900;2022-09-09T08:51:57;23.70;;;16.63;;
59569;SDS011;45393;44.646;10.900;2022-09-09T08:54:23;25.43;;;17.30;;
59569;SDS011;45393;44.646;10.900;2022-09-09T08:56:51;29.23;;;17.47;;
59569;SDS011;45393;44.646;10.900;2022-09-09T08:59:18;24.17;;;16.13;;
59569;SDS011;45393;44.646;10.900;2022-09-09T09:01:54;22.23;;;16.87;;
59569;SDS011;45393;44.646;10.900;2022-09-09T09:07:40;28.47;;;19.77;;
59569;SDS011;45393;44.646;10.900;2022-09-09T09:12:29;18.20;;;15.17;;
59569;SDS011;45393;44.646;10.900;2022-09-09T09:14:58;19.60;;;14.13;;
59569;SDS011;45393;44.646;10.900;2022-09-09T09:17:25;16.80;;;14.10;;
59569;SDS011;45393;44.646;10.900;2022-09-09T09:19:52;16.37;;;13.30;;
59569;SDS011;45393;44.646;10.900;2022-09-09T09:22:22;18.40;;;14.57;;
59569;SDS011;45393;44.646;10.900;2022-09-09T09:27:33;20.30;;;14.73;;
59569;SDS011;45393;44.646;10.900;2022-09-09T09:30:00;18.07;;;12.97;;
59569;SDS011;45393;44.646;10.900;2022-09-09T09:32:28;13.05;;;9.82;;
59569;SDS011;45393;44.646;10.900;2022-09-09T09:34:56;11.68;;;9.13;;
59569;SDS011;45393;44.646;10.900;2022-09-09T09:37:28;12.52;;;8.65;;
59569;SDS011;45393;44.646;10.900;2022-09-09T09:39:55;11.77;;;7.72;;
59569;SDS011;45393;44.646;10.900;2022-09-09T09:42:21;16.17;;;11.33;;
59569;SDS011;45393;44.646;10.900;2022-09-09T09:44:48;11.38;;;9.68;;
59569;SDS011;45393;44.646;10.900;2022-09-09T09:47:15;16.67;;;12.60;;
59569;SDS011;45393;44.646;10.900;2022-09-09T09:49:54;18.57;;;13.30;;
59569;SDS011;45393;44.646;10.900;2022-09-09T09:52:21;15.03;;;10.37;;
59569;SDS011;45393;44.646;10.900;2022-09-09T09:54:48;11.10;;;8.37;;
59569;SDS011;45393;44.646;10.900;2022-09-09T09:57:16;12.43;;;7.20;;
59569;SDS011;45393;44.646;10.900;2022-09-09T09:59:42;13.17;;;8.03;;
59569;SDS011;45393;44.646;10.900;2022-09-09T10:02:16;11.20;;;8.10;;
59569;SDS011;45393;44.646;10.900;2022-09-09T10:04:43;12.50;;;9.23;;
59569;SDS011;45393;44.646;10.900;2022-09-09T10:07:17;17.07;;;10.77;;
59569;SDS011;45393;44.646;10.900;2022-09-09T10:09:43;11.37;;;8.00;;
59569;SDS011;45393;44.646;10.900;2022-09-09T10:17:27;8.97;;;6.53;;
59569;SDS011;45393;44.646;10.900;2022-09-09T10:25:08;9.20;;;6.50;;
59569;SDS011;45393;44.646;10.900;2022-09-09T10:30:21;8.90;;;5.23;;
59569;SDS011;45393;44.646;10.900;2022-09-09T10:35:29;9.13;;;5.50;;
59569;SDS011;45393;44.646;10.900;2022-09-09T10:53:46;9.27;;;3.20;;
59569;SDS011;45393;44.646;10.900;2022-09-09T10:56:16;9.30;;;3.10;;
59569;SDS011;45393;44.646;10.900;2022-09-09T11:01:31;7.50;;;2.93;;
59569;SDS011;45393;44.646;10.900;2022-09-09T11:04:09;11.87;;;4.03;;
59569;SDS011;45393;44.646;10.900;2022-09-09T11:06:37;9.43;;;3.73;;
59569;SDS011;45393;44.646;10.900;2022-09-09T11:09:08;6.30;;;3.20;;
59569;SDS011;45393;44.646;10.900;2022-09-09T11:11:39;12.00;;;3.30;;
59569;SDS011;45393;44.646;10.900;2022-09-09T11:14:10;10.13;;;3.33;;
59569;SDS011;45393;44.646;10.900;2022-09-09T11:16:51;6.93;;;2.70;;
59569;SDS011;45393;44.646;10.900;2022-09-09T11:19:32;7.17;;;2.60;;
59569;SDS011;45393;44.646;10.900;2022-09-09T11:21:59;12.57;;;2.97;;
59569;SDS011;45393;44.646;10.900;2022-09-09T11:24:29;5.80;;;2.10;;
59569;SDS011;45393;44.646;10.900;2022-09-09T11:26:58;4.33;;;2.47;;
59569;SDS011;45393;44.646;10.900;2022-09-09T11:29:42;9.27;;;2.40;;
59569;SDS011;45393;44.646;10.900;2022-09-09T11:40:17;6.80;;;2.67;;
59569;SDS011;45393;44.646;10.900;2022-09-09T11:42:35;6.40;;;2.10;;
59569;SDS011;45393;44.646;10.900;2022-09-09T11:45:08;6.27;;;1.70;;
59569;SDS011;45393;44.646;10.900;2022-09-09T11:47:36;5.40;;;1.97;;
59569;SDS011;45393;44.646;10.900;2022-09-09T11:52:42;5.60;;;1.80;;
59569;SDS011;45393;44.646;10.900;2022-09-09T11:55:12;5.77;;;1.50;;
59569;SDS011;45393;44.646;10.900;2022-09-09T11:57:57;5.20;;;1.50;;
59569;SDS011;45393;44.646;10.900;2022-09-09T12:00:30;4.10;;;1.50;;
59569;SDS011;45393;44.646;10.900;2022-09-09T12:02:58;6.17;;;1.63;;
59569;SDS011;45393;44.646;10.900;2022-09-09T12:05:24;4.07;;;1.87;;
59569;SDS011;45393;44.646;10.900;2022-09-09T12:08:01;5.63;;;2.00;;
59569;SDS011;45393;44.646;10.900;2022-09-09T12:10:35;6.50;;;2.33;;
59569;SDS011;45393;44.646;10.900;2022-09-09T12:13:25;4.03;;;2.20;;
59569;SDS011;45393;44.646;10.900;2022-09-09T12:15:56;7.77;;;2.60;;
59569;SDS011;45393;44.646;10.900;2022-09-09T12:18:32;8.87;;;3.77;;
59569;SDS011;45393;44.646;10.900;2022-09-09T12:21:04;10.20;;;3.70;;
59569;SDS011;45393;44.646;10.900;2022-09-09T12:28:52;10.27;;;3.33;;
59569;SDS011;45393;44.646;10.900;2022-09-09T12:33:51;12.23;;;4.07;;
59569;SDS011;45393;44.646;10.900;2022-09-09T12:38:47;8.23;;;3.70;;
59569;SDS011;45393;44.646;10.900;2022-09-09T12:41:19;7.77;;;3.50;;
59569;SDS011;45393;44.646;10.900;2022-09-09T12:43:46;7.93;;;3.47;;
59569;SDS011;45393;44.646;10.900;2022-09-09T12:46:16;7.53;;;3.00;;
59569;SDS011;45393;44.646;10.900;2022-09-09T12:48:46;8.50;;;3.07;;
59569;SDS011;45393;44.646;10.900;2022-09-09T12:51:17;14.13;;;3.40;;
59569;SDS011;45393;44.646;10.900;2022-09-09T12:53:44;7.57;;;2.80;;
59569;SDS011;45393;44.646;10.900;2022-09-09T12:56:18;6.03;;;2.90;;
59569;SDS011;45393;44.646;10.900;2022-09-09T12:58:45;4.87;;;2.90;;
59569;SDS011;45393;44.646;10.900;2022-09-09T13:01:22;6.93;;;2.93;;
59569;SDS011;45393;44.646;10.900;2022-09-09T13:03:49;9.57;;;2.70;;
59569;SDS011;45393;44.646;10.900;2022-09-09T13:06:20;5.93;;;2.50;;
59569;SDS011;45393;44.646;10.900;2022-09-09T13:08:47;5.40;;;2.17;;
59569;SDS011;45393;44.646;10.900;2022-09-09T13:11:15;4.60;;;2.03;;
59569;SDS011;45393;44.646;10.900;2022-09-09T13:13:43;4.13;;;1.90;;
59569;SDS011;45393;44.646;10.900;2022-09-09T13:16:24;5.07;;;2.10;;
59569;SDS011;45393;44.646;10.900;2022-09-09T13:18:52;9.33;;;2.00;;
59569;SDS011;45393;44.646;10.900;2022-09-09T13:21:18;6.20;;;2.10;;
59569;SDS011;45393;44.646;10.900;2022-09-09T13:23:48;7.30;;;1.90;;
59569;SDS011;45393;44.646;10.900;2022-09-09T13:26:33;4.20;;;1.70;;
59569;SDS011;45393;44.646;10.900;2022-09-09T13:29:16;6.33;;;1.97;;
59569;SDS011;45393;44.646;10.900;2022-09-09T13:31:43;5.23;;;2.03;;
59569;SDS011;45393;44.646;10.900;2022-09-09T13:34:13;5.83;;;1.70;;
59569;SDS011;45393;44.646;10.900;2022-09-09T13:36:39;4.80;;;1.87;;
59569;SDS011;45393;44.646;10.900;2022-09-09T13:39:13;7.87;;;2.10;;
59569;SDS011;45393;44.646;10.900;2022-09-09T13:41:44;6.23;;;1.67;;
59569;SDS011;45393;44.646;10.900;2022-09-09T13:44:21;6.07;;;1.83;;
59569;SDS011;45393;44.646;10.900;2022-09-09T13:46:58;6.00;;;1.80;;
59569;SDS011;45393;44.646;10.900;2022-09-09T13:49:25;5.03;;;1.70;;
59569;SDS011;45393;44.646;10.900;2022-09-09T13:52:02;3.87;;;1.67;;
59569;SDS011;45393;44.646;10.900;2022-09-09T13:54:30;4.67;;;1.83;;
59569;SDS011;45393;44.646;10.900;2022-09-09T13:56:56;7.37;;;2.23;;
59569;SDS011;45393;44.646;10.900;2022-09-09T13:59:22;6.67;;;1.90;;
59569;SDS011;45393;44.646;10.900;2022-09-09T14:01:49;4.57;;;1.50;;
59569;SDS011;45393;44.646;10.900;2022-09-09T14:04:17;3.87;;;1.67;;
59569;SDS011;45393;44.646;10.900;2022-09-09T14:06:45;6.83;;;1.70;;
59569;SDS011;45393;44.646;10.900;2022-09-09T14:09:12;4.83;;;1.63;;
59569;SDS011;45393;44.646;10.900;2022-09-09T14:11:40;2.40;;;1.50;;
59569;SDS011;45393;44.646;10.900;2022-09-09T14:14:06;5.83;;;2.10;;
59569;SDS011;45393;44.646;10.900;2022-09-09T14:16:33;6.50;;;1.90;;
59569;SDS011;45393;44.646;10.900;2022-09-09T14:18:59;6.83;;;2.00;;
59569;SDS011;45393;44.646;10.900;2022-09-09T14:21:26;7.07;;;1.53;;
59569;SDS011;45393;44.646;10.900;2022-09-09T14:23:53;4.93;;;1.90;;
59569;SDS011;45393;44.646;10.900;2022-09-09T14:26:20;5.83;;;1.73;;
59569;SDS011;45393;44.646;10.900;2022-09-09T14:28:47;5.80;;;1.90;;
59569;SDS011;45393;44.646;10.900;2022-09-09T14:31:13;7.30;;;1.93;;
59569;SDS011;45393;44.646;10.900;2022-09-09T14:33:39;3.93;;;1.50;;
59569;SDS011;45393;44.646;10.900;2022-09-09T14:36:06;6.20;;;2.10;;
59569;SDS011;45393;44.646;10.900;2022-09-09T14:38:33;5.53;;;2.10;;
59569;SDS011;45393;44.646;10.900;2022-09-09T14:40:59;4.67;;;1.60;;
59569;SDS011;45393;44.646;10.900;2022-09-09T14:43:28;6.30;;;2.00;;
59569;SDS011;45393;44.646;10.900;2022-09-09T14:45:55;6.47;;;1.70;;
59569;SDS011;45393;44.646;10.900;2022-09-09T14:48:21;3.63;;;1.70;;
59569;SDS011;45393;44.646;10.900;2022-09-09T14:50:47;4.80;;;1.80;;
59569;SDS011;45393;44.646;10.900;2022-09-09T14:53:14;4.83;;;2.10;;
59569;SDS011;45393;44.646;10.900;2022-09-09T14:55:42;3.40;;;1.90;;
59569;SDS011;45393;44.646;10.900;2022-09-09T14:58:08;4.20;;;1.40;;
59569;SDS011;45393;44.646;10.900;2022-09-09T15:00:34;3.83;;;1.67;;
59569;SDS011;45393;44.646;10.900;2022-09-09T15:03:01;3.40;;;1.60;;
59569;SDS011;45393;44.646;10.900;2022-09-09T15:05:27;4.57;;;1.80;;
59569;SDS011;45393;44.646;10.900;2022-09-09T15:07:53;7.13;;;2.10;;
59569;SDS011;45393;44.646;10.900;2022-09-09T15:10:19;3.60;;;1.67;;
59569;SDS011;45393;44.646;10.900;2022-09-09T15:12:46;3.70;;;1.60;;
59569;SDS011;45393;44.646;10.900;2022-09-09T15:15:12;7.03;;;1.90;;
59569;SDS011;45393;44.646;10.900;2022-09-09T15:17:38;7.00;;;2.23;;
59569;SDS011;45393;44.646;10.900;2022-09-09T15:20:04;6.33;;;2.30;;
59569;SDS011;45393;44.646;10.900;2022-09-09T15:22:31;4.77;;;1.90;;
59569;SDS011;45393;44.646;10.900;2022-09-09T15:24:57;6.00;;;1.90;;
59569;SDS011;45393;44.646;10.900;2022-09-09T15:27:23;3.73;;;1.83;;
59569;SDS011;45393;44.646;10.900;2022-09-09T15:29:49;9.13;;;2.10;;
59569;SDS011;45393;44.646;10.900;2022-09-09T15:32:16;6.97;;;2.17;;
59569;SDS011;45393;44.646;10.900;2022-09-09T15:34:42;4.73;;;1.87;;
59569;SDS011;45393;44.646;10.900;2022-09-09T15:37:11;4.03;;;1.67;;
59569;SDS011;45393;44.646;10.900;2022-09-09T15:39:38;5.17;;;1.90;;
59569;SDS011;45393;44.646;10.900;2022-09-09T15:42:04;3.40;;;1.63;;
59569;SDS011;45393;44.646;10.900;2022-09-09T15:44:42;4.23;;;1.50;;
59569;SDS011;45393;44.646;10.900;2022-09-09T15:47:10;8.03;;;2.13;;
59569;SDS011;45393;44.646;10.900;2022-09-09T15:49:37;2.83;;;1.70;;
59569;SDS011;45393;44.646;10.900;2022-09-09T15:52:03;4.07;;;1.70;;
59569;SDS011;45393;44.646;10.900;2022-09-09T15:54:34;6.77;;;2.20;;
59569;SDS011;45393;44.646;10.900;2022-09-09T15:57:01;4.77;;;1.77;;
59569;SDS011;45393;44.646;10.900;2022-09-09T15:59:29;3.80;;;1.60;;
59569;SDS011;45393;44.646;10.900;2022-09-09T16:01:55;6.93;;;2.00;;
59569;SDS011;45393;44.646;10.900;2022-09-09T16:04:23;4.23;;;1.63;;
59569;SDS011;45393;44.646;10.900;2022-09-09T16:06:53;7.57;;;1.90;;
59569;SDS011;45393;44.646;10.900;2022-09-09T16:09:19;4.77;;;1.90;;
59569;SDS011;45393;44.646;10.900;2022-09-09T16:11:46;6.73;;;2.00;;
59569;SDS011;45393;44.646;10.900;2022-09-09T16:14:12;3.10;;;1.77;;
59569;SDS011;45393;44.646;10.900;2022-09-09T16:16:40;4.43;;;1.87;;
59569;SDS011;45393;44.646;10.900;2022-09-09T16:19:08;3.20;;;1.73;;
59569;SDS011;45393;44.646;10.900;2022-09-09T16:21:39;4.90;;;1.97;;
59569;SDS011;45393;44.646;10.900;2022-09-09T16:24:07;5.30;;;1.80;;
59569;SDS011;45393;44.646;10.900;2022-09-09T16:26:35;5.70;;;1.83;;
59569;SDS011;45393;44.646;10.900;2022-09-09T16:29:02;5.77;;;2.20;;
59569;SDS011;45393;44.646;10.900;2022-09-09T16:31:28;7.93;;;2.50;;
59569;SDS011;45393;44.646;10.900;2022-09-09T16:33:56;8.70;;;2.57;;